sensor_id;sensor_type;location;lat;lon;timestamp;P1;durP1;ratioP1;P2;durP2;ratioP2
41885;SDS011;27567;43.084;25.616;2023-11-19T00:01:38;3.30;;;2.13;;
41885;SDS011;27567;43.084;25.616;2023-11-19T00:04:22;3.65;;;1.80;;
41885;SDS011;27567;43.084;25.616;2023-11-19T00:07:06;2.45;;;1.58;;
41885;SDS011;27567;43.084;25.616;2023-11-19T00:09:51;2.00;;;1.40;;
41885;SDS011;27567;43.084;25.616;2023-11-19T00:12:36;2.88;;;2.10;;
41885;SDS011;27567;43.084;25.616;2023-11-19T00:15:20;3.97;;;2.17;;
41885;SDS011;27567;43.084;25.616;2023-11-19T00:18:04;2.90;;;1.75;;
41885;SDS011;27567;43.084;25.616;2023-11-19T00:20:48;4.47;;;1.88;;
41885;SDS011;27567;43.084;25.616;2023-11-19T00:23:32;2.70;;;1.88;;
41885;SDS011;27567;43.084;25.616;2023-11-19T00:26:16;3.13;;;1.50;;
41885;SDS011;27567;43.084;25.616;2023-11-19T00:29:00;2.83;;;1.30;;
41885;SDS011;27567;43.084;25.616;2023-11-19T00:31:44;2.30;;;1.58;;
41885;SDS011;27567;43.084;25.616;2023-11-19T00:34:28;3.13;;;1.58;;
41885;SDS011;27567;43.084;25.616;2023-11-19T00:37:12;3.08;;;2.03;;
41885;SDS011;27567;43.084;25.616;2023-11-19T00:39:56;3.58;;;2.28;;
41885;SDS011;27567;43.084;25.616;2023-11-19T00:42:40;3.78;;;1.90;;
41885;SDS011;27567;43.084;25.616;2023-11-19T00:45:24;2.08;;;1.38;;
41885;SDS011;27567;43.084;25.616;2023-11-19T00:48:08;2.80;;;1.40;;
41885;SDS011;27567;43.084;25.616;2023-11-19T00:50:52;3.30;;;1.90;;
41885;SDS011;27567;43.084;25.616;2023-11-19T00:53:36;2.60;;;1.67;;
41885;SDS011;27567;43.084;25.616;2023-11-19T00:56:20;1.17;;;0.98;;
41885;SDS011;27567;43.084;25.616;2023-11-19T00:59:03;2.05;;;1.20;;
41885;SDS011;27567;43.084;25.616;2023-11-19T01:01:47;2.28;;;1.40;;
41885;SDS011;27567;43.084;25.616;2023-11-19T01:04:35;1.90;;;1.10;;
41885;SDS011;27567;43.084;25.616;2023-11-19T01:07:19;5.93;;;1.42;;
41885;SDS011;27567;43.084;25.616;2023-11-19T01:10:05;2.03;;;1.33;;
41885;SDS011;27567;43.084;25.616;2023-11-19T01:12:49;1.73;;;1.17;;
41885;SDS011;27567;43.084;25.616;2023-11-19T01:15:33;1.83;;;1.33;;
41885;SDS011;27567;43.084;25.616;2023-11-19T01:18:17;1.75;;;1.00;;
41885;SDS011;27567;43.084;25.616;2023-11-19T01:21:01;2.45;;;1.67;;
41885;SDS011;27567;43.084;25.616;2023-11-19T01:23:45;1.20;;;0.88;;
41885;SDS011;27567;43.084;25.616;2023-11-19T01:26:29;2.30;;;1.35;;
41885;SDS011;27567;43.084;25.616;2023-11-19T01:29:13;1.38;;;1.10;;
41885;SDS011;27567;43.084;25.616;2023-11-19T01:31:57;2.15;;;1.25;;
41885;SDS011;27567;43.084;25.616;2023-11-19T01:34:41;1.98;;;1.00;;
41885;SDS011;27567;43.084;25.616;2023-11-19T01:37:25;1.45;;;0.90;;
41885;SDS011;27567;43.084;25.616;2023-11-19T01:40:09;3.58;;;1.10;;
41885;SDS011;27567;43.084;25.616;2023-11-19T01:42:55;1.15;;;0.75;;
41885;SDS011;27567;43.084;25.616;2023-11-19T01:45:39;1.73;;;1.00;;
41885;SDS011;27567;43.084;25.616;2023-11-19T01:48:23;2.67;;;1.23;;
41885;SDS011;27567;43.084;25.616;2023-11-19T01:51:08;1.75;;;1.00;;
41885;SDS011;27567;43.084;25.616;2023-11-19T01:53:52;3.60;;;1.58;;
41885;SDS011;27567;43.084;25.616;2023-11-19T01:56:36;2.03;;;1.23;;
41885;SDS011;27567;43.084;25.616;2023-11-19T01:59:24;1.42;;;0.82;;
41885;SDS011;27567;43.084;25.616;2023-11-19T02:02:10;1.48;;;1.10;;
41885;SDS011;27567;43.084;25.616;2023-11-19T02:04:55;1.88;;;1.10;;
41885;SDS011;27567;43.084;25.616;2023-11-19T02:07:39;2.28;;;1.55;;
41885;SDS011;27567;43.084;25.616;2023-11-19T02:10:23;2.35;;;1.60;;
41885;SDS011;27567;43.084;25.616;2023-11-19T02:13:08;2.13;;;1.10;;
41885;SDS011;27567;43.084;25.616;2023-11-19T02:15:54;3.15;;;1.75;;
41885;SDS011;27567;43.084;25.616;2023-11-19T02:18:38;2.40;;;1.20;;
41885;SDS011;27567;43.084;25.616;2023-11-19T02:21:22;2.25;;;1.23;;
41885;SDS011;27567;43.084;25.616;2023-11-19T02:24:07;1.65;;;0.95;;
41885;SDS011;27567;43.084;25.616;2023-11-19T02:27:02;2.38;;;1.27;;
41885;SDS011;27567;43.084;25.616;2023-11-19T02:29:47;2.47;;;1.67;;
41885;SDS011;27567;43.084;25.616;2023-11-19T02:32:31;0.82;;;0.73;;
41885;SDS011;27567;43.084;25.616;2023-11-19T02:35:15;1.73;;;1.13;;
41885;SDS011;27567;43.084;25.616;2023-11-19T02:37:59;2.50;;;1.80;;
41885;SDS011;27567;43.084;25.616;2023-11-19T02:40:44;1.75;;;1.20;;
41885;SDS011;27567;43.084;25.616;2023-11-19T02:43:28;2.13;;;1.50;;
41885;SDS011;27567;43.084;25.616;2023-11-19T02:46:12;2.70;;;1.55;;
41885;SDS011;27567;43.084;25.616;2023-11-19T02:48:55;6.03;;;1.92;;
41885;SDS011;27567;43.084;25.616;2023-11-19T02:51:39;2.72;;;1.65;;
41885;SDS011;27567;43.084;25.616;2023-11-19T02:54:23;2.42;;;1.25;;
41885;SDS011;27567;43.084;25.616;2023-11-19T02:57:10;1.50;;;0.75;;
41885;SDS011;27567;43.084;25.616;2023-11-19T02:59:55;3.83;;;1.00;;
41885;SDS011;27567;43.084;25.616;2023-11-19T03:02:40;1.42;;;0.88;;
41885;SDS011;27567;43.084;25.616;2023-11-19T03:05:30;1.52;;;1.20;;
41885;SDS011;27567;43.084;25.616;2023-11-19T03:08:14;2.90;;;1.25;;
41885;SDS011;27567;43.084;25.616;2023-11-19T03:10:59;1.85;;;1.27;;
41885;SDS011;27567;43.084;25.616;2023-11-19T03:13:43;1.55;;;1.05;;
41885;SDS011;27567;43.084;25.616;2023-11-19T03:16:27;2.13;;;1.30;;
41885;SDS011;27567;43.084;25.616;2023-11-19T03:19:10;2.53;;;1.38;;
41885;SDS011;27567;43.084;25.616;2023-11-19T03:21:54;1.67;;;1.05;;
41885;SDS011;27567;43.084;25.616;2023-11-19T03:24:38;1.25;;;1.00;;
41885;SDS011;27567;43.084;25.616;2023-11-19T03:27:22;2.15;;;1.30;;
41885;SDS011;27567;43.084;25.616;2023-11-19T03:30:06;2.97;;;1.52;;
41885;SDS011;27567;43.084;25.616;2023-11-19T03:32:51;2.85;;;1.55;;
41885;SDS011;27567;43.084;25.616;2023-11-19T03:35:34;1.63;;;1.10;;
41885;SDS011;27567;43.084;25.616;2023-11-19T03:38:18;2.05;;;1.33;;
41885;SDS011;27567;43.084;25.616;2023-11-19T03:41:09;2.85;;;1.50;;
41885;SDS011;27567;43.084;25.616;2023-11-19T03:43:53;3.38;;;1.55;;
41885;SDS011;27567;43.084;25.616;2023-11-19T03:46:37;2.20;;;1.10;;
41885;SDS011;27567;43.084;25.616;2023-11-19T03:49:21;2.92;;;1.63;;
41885;SDS011;27567;43.084;25.616;2023-11-19T03:52:07;2.63;;;1.48;;
41885;SDS011;27567;43.084;25.616;2023-11-19T03:54:53;3.28;;;1.42;;
41885;SDS011;27567;43.084;25.616;2023-11-19T03:57:38;2.50;;;1.63;;
41885;SDS011;27567;43.084;25.616;2023-11-19T04:00:22;4.20;;;1.63;;
41885;SDS011;27567;43.084;25.616;2023-11-19T04:03:06;4.57;;;1.88;;
41885;SDS011;27567;43.084;25.616;2023-11-19T04:05:50;2.33;;;1.48;;
41885;SDS011;27567;43.084;25.616;2023-11-19T04:08:37;2.42;;;1.50;;
41885;SDS011;27567;43.084;25.616;2023-11-19T04:11:20;2.45;;;1.58;;
41885;SDS011;27567;43.084;25.616;2023-11-19T04:14:05;2.38;;;1.48;;
41885;SDS011;27567;43.084;25.616;2023-11-19T04:16:48;3.60;;;1.98;;
41885;SDS011;27567;43.084;25.616;2023-11-19T04:19:32;1.48;;;0.93;;
41885;SDS011;27567;43.084;25.616;2023-11-19T04:22:16;2.28;;;1.50;;
41885;SDS011;27567;43.084;25.616;2023-11-19T04:25:00;3.15;;;1.27;;
41885;SDS011;27567;43.084;25.616;2023-11-19T04:27:44;6.10;;;2.20;;
41885;SDS011;27567;43.084;25.616;2023-11-19T04:30:28;3.20;;;1.83;;
41885;SDS011;27567;43.084;25.616;2023-11-19T04:33:12;4.15;;;1.50;;
41885;SDS011;27567;43.084;25.616;2023-11-19T04:35:56;1.63;;;1.13;;
41885;SDS011;27567;43.084;25.616;2023-11-19T04:38:40;2.55;;;1.40;;
41885;SDS011;27567;43.084;25.616;2023-11-19T04:41:25;4.40;;;1.98;;
41885;SDS011;27567;43.084;25.616;2023-11-19T04:44:11;4.25;;;2.03;;
41885;SDS011;27567;43.084;25.616;2023-11-19T04:46:55;2.30;;;1.20;;
41885;SDS011;27567;43.084;25.616;2023-11-19T04:49:40;5.60;;;1.65;;
41885;SDS011;27567;43.084;25.616;2023-11-19T04:52:24;2.15;;;1.58;;
41885;SDS011;27567;43.084;25.616;2023-11-19T04:55:07;1.88;;;1.42;;
41885;SDS011;27567;43.084;25.616;2023-11-19T04:57:55;2.70;;;1.60;;
41885;SDS011;27567;43.084;25.616;2023-11-19T05:00:39;2.22;;;1.15;;
41885;SDS011;27567;43.084;25.616;2023-11-19T05:03:22;2.33;;;1.48;;
41885;SDS011;27567;43.084;25.616;2023-11-19T05:06:07;2.25;;;1.65;;
41885;SDS011;27567;43.084;25.616;2023-11-19T05:08:51;4.43;;;2.10;;
41885;SDS011;27567;43.084;25.616;2023-11-19T05:11:35;4.78;;;2.13;;
41885;SDS011;27567;43.084;25.616;2023-11-19T05:14:19;3.13;;;2.03;;
41885;SDS011;27567;43.084;25.616;2023-11-19T05:17:04;2.75;;;1.67;;
41885;SDS011;27567;43.084;25.616;2023-11-19T05:19:47;2.47;;;1.70;;
41885;SDS011;27567;43.084;25.616;2023-11-19T05:22:31;2.70;;;1.90;;
41885;SDS011;27567;43.084;25.616;2023-11-19T05:25:15;4.97;;;2.45;;
41885;SDS011;27567;43.084;25.616;2023-11-19T05:27:59;3.75;;;2.45;;
41885;SDS011;27567;43.084;25.616;2023-11-19T05:30:43;3.92;;;1.95;;
41885;SDS011;27567;43.084;25.616;2023-11-19T05:33:28;2.20;;;1.90;;
41885;SDS011;27567;43.084;25.616;2023-11-19T05:36:12;3.38;;;2.42;;
41885;SDS011;27567;43.084;25.616;2023-11-19T05:38:56;4.13;;;2.17;;
41885;SDS011;27567;43.084;25.616;2023-11-19T05:41:40;3.40;;;2.15;;
41885;SDS011;27567;43.084;25.616;2023-11-19T05:44:24;2.67;;;1.52;;
41885;SDS011;27567;43.084;25.616;2023-11-19T05:47:08;3.55;;;1.90;;
41885;SDS011;27567;43.084;25.616;2023-11-19T05:49:52;2.55;;;1.77;;
41885;SDS011;27567;43.084;25.616;2023-11-19T05:52:36;2.95;;;1.88;;
41885;SDS011;27567;43.084;25.616;2023-11-19T05:55:20;2.55;;;1.75;;
41885;SDS011;27567;43.084;25.616;2023-11-19T05:58:03;4.80;;;2.38;;
41885;SDS011;27567;43.084;25.616;2023-11-19T06:00:50;2.75;;;1.92;;
41885;SDS011;27567;43.084;25.616;2023-11-19T06:03:35;4.15;;;2.38;;
41885;SDS011;27567;43.084;25.616;2023-11-19T06:06:19;3.80;;;2.15;;
41885;SDS011;27567;43.084;25.616;2023-11-19T06:09:03;4.88;;;2.58;;
41885;SDS011;27567;43.084;25.616;2023-11-19T06:11:47;2.72;;;1.77;;
41885;SDS011;27567;43.084;25.616;2023-11-19T06:14:32;2.75;;;2.00;;
41885;SDS011;27567;43.084;25.616;2023-11-19T06:17:16;3.47;;;1.70;;
41885;SDS011;27567;43.084;25.616;2023-11-19T06:20:01;3.65;;;2.13;;
41885;SDS011;27567;43.084;25.616;2023-11-19T06:22:47;4.47;;;2.97;;
41885;SDS011;27567;43.084;25.616;2023-11-19T06:25:31;3.13;;;2.15;;
41885;SDS011;27567;43.084;25.616;2023-11-19T06:28:16;4.40;;;2.60;;
41885;SDS011;27567;43.084;25.616;2023-11-19T06:31:00;4.43;;;2.67;;
41885;SDS011;27567;43.084;25.616;2023-11-19T06:33:44;3.60;;;2.47;;
41885;SDS011;27567;43.084;25.616;2023-11-19T06:36:29;3.58;;;2.50;;
41885;SDS011;27567;43.084;25.616;2023-11-19T06:39:13;4.82;;;2.50;;
41885;SDS011;27567;43.084;25.616;2023-11-19T06:41:58;3.03;;;2.25;;
41885;SDS011;27567;43.084;25.616;2023-11-19T06:44:42;4.32;;;2.45;;
41885;SDS011;27567;43.084;25.616;2023-11-19T06:47:26;3.22;;;2.60;;
41885;SDS011;27567;43.084;25.616;2023-11-19T06:50:11;3.38;;;2.45;;
41885;SDS011;27567;43.084;25.616;2023-11-19T06:52:56;5.90;;;3.08;;
41885;SDS011;27567;43.084;25.616;2023-11-19T06:55:40;4.35;;;2.58;;
41885;SDS011;27567;43.084;25.616;2023-11-19T06:58:24;4.93;;;2.88;;
41885;SDS011;27567;43.084;25.616;2023-11-19T07:01:08;6.00;;;2.88;;
41885;SDS011;27567;43.084;25.616;2023-11-19T07:03:52;5.00;;;2.90;;
41885;SDS011;27567;43.084;25.616;2023-11-19T07:06:36;3.80;;;2.65;;
41885;SDS011;27567;43.084;25.616;2023-11-19T07:09:20;5.60;;;2.80;;
41885;SDS011;27567;43.084;25.616;2023-11-19T07:12:05;3.25;;;2.45;;
41885;SDS011;27567;43.084;25.616;2023-11-19T07:14:49;3.92;;;2.85;;
41885;SDS011;27567;43.084;25.616;2023-11-19T07:17:33;6.03;;;3.05;;
41885;SDS011;27567;43.084;25.616;2023-11-19T07:20:18;4.82;;;2.30;;
41885;SDS011;27567;43.084;25.616;2023-11-19T07:23:02;5.45;;;2.25;;
41885;SDS011;27567;43.084;25.616;2023-11-19T07:25:46;4.20;;;2.70;;
41885;SDS011;27567;43.084;25.616;2023-11-19T07:28:30;3.50;;;2.38;;
41885;SDS011;27567;43.084;25.616;2023-11-19T07:31:14;3.78;;;2.30;;
41885;SDS011;27567;43.084;25.616;2023-11-19T07:33:58;4.70;;;2.83;;
41885;SDS011;27567;43.084;25.616;2023-11-19T07:36:42;3.15;;;1.92;;
41885;SDS011;27567;43.084;25.616;2023-11-19T07:39:26;4.43;;;2.30;;
41885;SDS011;27567;43.084;25.616;2023-11-19T07:42:10;3.90;;;2.30;;
41885;SDS011;27567;43.084;25.616;2023-11-19T07:44:54;3.10;;;2.15;;
41885;SDS011;27567;43.084;25.616;2023-11-19T07:47:40;2.90;;;2.08;;
41885;SDS011;27567;43.084;25.616;2023-11-19T07:50:24;4.95;;;2.60;;
41885;SDS011;27567;43.084;25.616;2023-11-19T07:53:09;4.05;;;2.70;;
41885;SDS011;27567;43.084;25.616;2023-11-19T07:55:53;4.53;;;2.15;;
41885;SDS011;27567;43.084;25.616;2023-11-19T07:58:36;4.47;;;2.63;;
41885;SDS011;27567;43.084;25.616;2023-11-19T08:01:21;3.45;;;2.33;;
41885;SDS011;27567;43.084;25.616;2023-11-19T08:04:06;4.20;;;2.38;;
41885;SDS011;27567;43.084;25.616;2023-11-19T08:06:51;3.10;;;1.92;;
41885;SDS011;27567;43.084;25.616;2023-11-19T08:09:35;4.97;;;2.22;;
41885;SDS011;27567;43.084;25.616;2023-11-19T08:12:19;4.95;;;2.60;;
41885;SDS011;27567;43.084;25.616;2023-11-19T08:15:03;4.85;;;2.80;;
41885;SDS011;27567;43.084;25.616;2023-11-19T08:17:48;3.63;;;2.58;;
41885;SDS011;27567;43.084;25.616;2023-11-19T08:20:32;4.80;;;2.60;;
41885;SDS011;27567;43.084;25.616;2023-11-19T08:23:16;2.97;;;2.03;;
41885;SDS011;27567;43.084;25.616;2023-11-19T08:26:00;3.50;;;2.22;;
41885;SDS011;27567;43.084;25.616;2023-11-19T08:28:44;3.65;;;2.38;;
41885;SDS011;27567;43.084;25.616;2023-11-19T08:31:28;4.93;;;2.67;;
41885;SDS011;27567;43.084;25.616;2023-11-19T08:34:13;4.47;;;2.72;;
41885;SDS011;27567;43.084;25.616;2023-11-19T08:36:56;2.95;;;1.90;;
41885;SDS011;27567;43.084;25.616;2023-11-19T08:39:40;5.25;;;2.58;;
41885;SDS011;27567;43.084;25.616;2023-11-19T08:42:25;2.85;;;1.85;;
41885;SDS011;27567;43.084;25.616;2023-11-19T08:45:09;4.15;;;2.50;;
41885;SDS011;27567;43.084;25.616;2023-11-19T08:47:53;3.67;;;2.28;;
41885;SDS011;27567;43.084;25.616;2023-11-19T08:50:37;3.78;;;2.20;;
41885;SDS011;27567;43.084;25.616;2023-11-19T08:53:21;4.50;;;2.40;;
41885;SDS011;27567;43.084;25.616;2023-11-19T08:56:05;3.22;;;2.08;;
41885;SDS011;27567;43.084;25.616;2023-11-19T08:58:49;2.75;;;2.10;;
41885;SDS011;27567;43.084;25.616;2023-11-19T09:01:34;3.30;;;2.55;;
41885;SDS011;27567;43.084;25.616;2023-11-19T09:04:17;3.65;;;2.35;;
41885;SDS011;27567;43.084;25.616;2023-11-19T09:07:01;3.67;;;2.15;;
41885;SDS011;27567;43.084;25.616;2023-11-19T09:09:46;3.25;;;2.20;;
41885;SDS011;27567;43.084;25.616;2023-11-19T09:12:30;3.97;;;2.70;;
41885;SDS011;27567;43.084;25.616;2023-11-19T09:15:14;3.25;;;2.25;;
41885;SDS011;27567;43.084;25.616;2023-11-19T09:17:58;2.40;;;1.70;;
41885;SDS011;27567;43.084;25.616;2023-11-19T09:20:42;3.42;;;2.33;;
41885;SDS011;27567;43.084;25.616;2023-11-19T09:23:26;3.53;;;2.17;;
41885;SDS011;27567;43.084;25.616;2023-11-19T09:26:13;4.38;;;2.13;;
41885;SDS011;27567;43.084;25.616;2023-11-19T09:28:57;4.07;;;2.38;;
41885;SDS011;27567;43.084;25.616;2023-11-19T09:31:41;3.80;;;2.53;;
41885;SDS011;27567;43.084;25.616;2023-11-19T09:34:25;4.07;;;2.40;;
41885;SDS011;27567;43.084;25.616;2023-11-19T09:37:09;3.65;;;2.50;;
41885;SDS011;27567;43.084;25.616;2023-11-19T09:39:52;2.53;;;1.73;;
41885;SDS011;27567;43.084;25.616;2023-11-19T09:42:41;3.33;;;2.28;;
41885;SDS011;27567;43.084;25.616;2023-11-19T09:45:27;4.32;;;3.15;;
41885;SDS011;27567;43.084;25.616;2023-11-19T09:48:11;3.17;;;1.83;;
41885;SDS011;27567;43.084;25.616;2023-11-19T09:50:55;3.55;;;2.70;;
41885;SDS011;27567;43.084;25.616;2023-11-19T09:53:39;4.13;;;2.50;;
41885;SDS011;27567;43.084;25.616;2023-11-19T09:56:23;3.97;;;2.80;;
41885;SDS011;27567;43.084;25.616;2023-11-19T09:59:08;4.60;;;2.40;;
41885;SDS011;27567;43.084;25.616;2023-11-19T10:01:53;3.45;;;2.17;;
41885;SDS011;27567;43.084;25.616;2023-11-19T10:04:38;3.58;;;2.67;;
41885;SDS011;27567;43.084;25.616;2023-11-19T10:07:22;5.13;;;2.67;;
41885;SDS011;27567;43.084;25.616;2023-11-19T10:10:06;3.92;;;2.50;;
41885;SDS011;27567;43.084;25.616;2023-11-19T10:12:51;4.78;;;3.00;;
41885;SDS011;27567;43.084;25.616;2023-11-19T10:15:38;4.68;;;3.00;;
41885;SDS011;27567;43.084;25.616;2023-11-19T10:18:28;2.95;;;2.22;;
41885;SDS011;27567;43.084;25.616;2023-11-19T10:21:12;4.22;;;2.85;;
41885;SDS011;27567;43.084;25.616;2023-11-19T10:24:00;2.92;;;2.13;;
41885;SDS011;27567;43.084;25.616;2023-11-19T10:26:44;4.75;;;2.40;;
41885;SDS011;27567;43.084;25.616;2023-11-19T10:29:29;5.53;;;3.47;;
41885;SDS011;27567;43.084;25.616;2023-11-19T10:32:13;4.57;;;2.00;;
41885;SDS011;27567;43.084;25.616;2023-11-19T10:35:05;3.53;;;3.05;;
41885;SDS011;27567;43.084;25.616;2023-11-19T10:37:49;3.42;;;2.42;;
41885;SDS011;27567;43.084;25.616;2023-11-19T10:40:38;3.05;;;2.22;;
41885;SDS011;27567;43.084;25.616;2023-11-19T10:43:24;3.60;;;2.42;;
41885;SDS011;27567;43.084;25.616;2023-11-19T10:46:09;3.42;;;2.20;;
41885;SDS011;27567;43.084;25.616;2023-11-19T10:48:53;4.55;;;2.85;;
41885;SDS011;27567;43.084;25.616;2023-11-19T10:51:38;6.22;;;3.45;;
41885;SDS011;27567;43.084;25.616;2023-11-19T10:54:26;3.92;;;2.42;;
41885;SDS011;27567;43.084;25.616;2023-11-19T10:57:10;3.65;;;2.40;;
41885;SDS011;27567;43.084;25.616;2023-11-19T10:59:57;3.97;;;2.60;;
41885;SDS011;27567;43.084;25.616;2023-11-19T11:02:43;3.72;;;2.15;;
41885;SDS011;27567;43.084;25.616;2023-11-19T11:05:29;3.28;;;2.28;;
41885;SDS011;27567;43.084;25.616;2023-11-19T11:08:16;6.63;;;2.45;;
41885;SDS011;27567;43.084;25.616;2023-11-19T11:11:00;4.00;;;2.75;;
41885;SDS011;27567;43.084;25.616;2023-11-19T11:13:46;3.92;;;2.47;;
41885;SDS011;27567;43.084;25.616;2023-11-19T11:16:30;3.85;;;2.95;;
41885;SDS011;27567;43.084;25.616;2023-11-19T11:19:16;3.55;;;2.58;;
41885;SDS011;27567;43.084;25.616;2023-11-19T11:22:00;2.50;;;2.05;;
41885;SDS011;27567;43.084;25.616;2023-11-19T11:25:11;4.28;;;2.30;;
41885;SDS011;27567;43.084;25.616;2023-11-19T11:34:08;4.72;;;2.90;;
41885;SDS011;27567;43.084;25.616;2023-11-19T11:39:52;3.70;;;2.58;;
41885;SDS011;27567;43.084;25.616;2023-11-19T11:42:36;3.42;;;1.90;;
41885;SDS011;27567;43.084;25.616;2023-11-19T11:45:34;3.95;;;2.33;;
41885;SDS011;27567;43.084;25.616;2023-11-19T11:48:19;2.88;;;1.83;;
41885;SDS011;27567;43.084;25.616;2023-11-19T11:51:06;2.13;;;1.38;;
41885;SDS011;27567;43.084;25.616;2023-11-19T11:53:51;3.00;;;2.20;;
41885;SDS011;27567;43.084;25.616;2023-11-19T11:56:41;2.28;;;1.83;;
41885;SDS011;27567;43.084;25.616;2023-11-19T11:59:25;2.60;;;1.60;;
41885;SDS011;27567;43.084;25.616;2023-11-19T12:02:10;2.60;;;1.90;;
41885;SDS011;27567;43.084;25.616;2023-11-19T12:04:55;3.65;;;2.35;;
41885;SDS011;27567;43.084;25.616;2023-11-19T12:07:40;2.88;;;2.13;;
41885;SDS011;27567;43.084;25.616;2023-11-19T12:10:24;2.45;;;1.90;;
41885;SDS011;27567;43.084;25.616;2023-11-19T12:13:08;2.58;;;1.70;;
41885;SDS011;27567;43.084;25.616;2023-11-19T12:18:40;4.75;;;2.95;;
41885;SDS011;27567;43.084;25.616;2023-11-19T12:21:31;2.25;;;1.70;;
41885;SDS011;27567;43.084;25.616;2023-11-19T12:24:15;2.00;;;1.70;;
41885;SDS011;27567;43.084;25.616;2023-11-19T12:27:00;3.08;;;1.88;;
41885;SDS011;27567;43.084;25.616;2023-11-19T12:29:44;2.72;;;1.85;;
41885;SDS011;27567;43.084;25.616;2023-11-19T12:32:36;2.65;;;2.30;;
41885;SDS011;27567;43.084;25.616;2023-11-19T12:35:20;2.67;;;1.65;;
41885;SDS011;27567;43.084;25.616;2023-11-19T12:38:04;2.22;;;1.58;;
41885;SDS011;27567;43.084;25.616;2023-11-19T12:41:07;1.98;;;1.70;;
41885;SDS011;27567;43.084;25.616;2023-11-19T12:43:52;2.42;;;1.70;;
41885;SDS011;27567;43.084;25.616;2023-11-19T12:46:36;2.15;;;1.70;;
41885;SDS011;27567;43.084;25.616;2023-11-19T12:49:20;3.08;;;1.80;;
41885;SDS011;27567;43.084;25.616;2023-11-19T12:52:14;3.40;;;1.70;;
41885;SDS011;27567;43.084;25.616;2023-11-19T12:54:58;2.65;;;2.08;;
41885;SDS011;27567;43.084;25.616;2023-11-19T12:57:43;4.70;;;2.00;;
41885;SDS011;27567;43.084;25.616;2023-11-19T13:00:27;2.05;;;1.80;;
41885;SDS011;27567;43.084;25.616;2023-11-19T13:03:12;2.45;;;1.92;;
41885;SDS011;27567;43.084;25.616;2023-11-19T13:06:01;2.80;;;1.92;;
41885;SDS011;27567;43.084;25.616;2023-11-19T13:08:46;2.73;;;1.93;;
41885;SDS011;27567;43.084;25.616;2023-11-19T13:11:33;3.58;;;2.15;;
41885;SDS011;27567;43.084;25.616;2023-11-19T13:14:17;2.90;;;1.95;;
41885;SDS011;27567;43.084;25.616;2023-11-19T13:17:08;2.97;;;1.90;;
41885;SDS011;27567;43.084;25.616;2023-11-19T13:19:53;4.28;;;1.98;;
41885;SDS011;27567;43.084;25.616;2023-11-19T13:22:36;2.90;;;1.98;;
41885;SDS011;27567;43.084;25.616;2023-11-19T13:25:20;4.57;;;2.80;;
41885;SDS011;27567;43.084;25.616;2023-11-19T13:28:04;3.13;;;2.05;;
41885;SDS011;27567;43.084;25.616;2023-11-19T13:30:50;2.53;;;1.98;;
41885;SDS011;27567;43.084;25.616;2023-11-19T13:33:34;2.42;;;2.05;;
41885;SDS011;27567;43.084;25.616;2023-11-19T13:36:19;2.50;;;1.90;;
41885;SDS011;27567;43.084;25.616;2023-11-19T13:39:03;3.78;;;2.20;;
41885;SDS011;27567;43.084;25.616;2023-11-19T13:41:47;3.70;;;2.97;;
41885;SDS011;27567;43.084;25.616;2023-11-19T13:44:31;4.03;;;2.67;;
41885;SDS011;27567;43.084;25.616;2023-11-19T13:47:15;4.47;;;2.38;;
41885;SDS011;27567;43.084;25.616;2023-11-19T13:49:59;3.80;;;2.55;;
41885;SDS011;27567;43.084;25.616;2023-11-19T13:52:44;3.88;;;2.25;;
41885;SDS011;27567;43.084;25.616;2023-11-19T13:55:30;3.25;;;2.22;;
41885;SDS011;27567;43.084;25.616;2023-11-19T13:58:14;3.58;;;2.30;;
41885;SDS011;27567;43.084;25.616;2023-11-19T14:00:58;4.15;;;2.35;;
41885;SDS011;27567;43.084;25.616;2023-11-19T14:03:42;5.03;;;2.30;;
41885;SDS011;27567;43.084;25.616;2023-11-19T14:06:26;4.05;;;2.30;;
41885;SDS011;27567;43.084;25.616;2023-11-19T14:09:10;3.65;;;2.53;;
41885;SDS011;27567;43.084;25.616;2023-11-19T14:11:56;3.55;;;2.33;;
41885;SDS011;27567;43.084;25.616;2023-11-19T14:14:40;3.25;;;2.10;;
41885;SDS011;27567;43.084;25.616;2023-11-19T14:17:26;4.10;;;2.38;;
41885;SDS011;27567;43.084;25.616;2023-11-19T14:20:10;3.35;;;2.38;;
41885;SDS011;27567;43.084;25.616;2023-11-19T14:22:57;2.72;;;2.15;;
41885;SDS011;27567;43.084;25.616;2023-11-19T14:25:41;3.75;;;2.50;;
41885;SDS011;27567;43.084;25.616;2023-11-19T14:28:25;3.95;;;2.50;;
41885;SDS011;27567;43.084;25.616;2023-11-19T14:31:09;4.25;;;2.70;;
41885;SDS011;27567;43.084;25.616;2023-11-19T14:33:53;4.65;;;3.20;;
41885;SDS011;27567;43.084;25.616;2023-11-19T14:36:37;4.53;;;2.97;;
41885;SDS011;27567;43.084;25.616;2023-11-19T14:39:21;5.22;;;3.20;;
41885;SDS011;27567;43.084;25.616;2023-11-19T14:42:05;6.30;;;3.33;;
41885;SDS011;27567;43.084;25.616;2023-11-19T14:44:49;6.55;;;3.00;;
41885;SDS011;27567;43.084;25.616;2023-11-19T14:47:33;4.45;;;3.50;;
41885;SDS011;27567;43.084;25.616;2023-11-19T14:50:17;5.45;;;3.53;;
41885;SDS011;27567;43.084;25.616;2023-11-19T14:53:01;4.35;;;2.97;;
41885;SDS011;27567;43.084;25.616;2023-11-19T14:55:46;4.40;;;3.30;;
41885;SDS011;27567;43.084;25.616;2023-11-19T14:58:29;4.57;;;2.90;;
41885;SDS011;27567;43.084;25.616;2023-11-19T15:01:14;5.53;;;3.55;;
41885;SDS011;27567;43.084;25.616;2023-11-19T15:03:57;6.15;;;3.10;;
41885;SDS011;27567;43.084;25.616;2023-11-19T15:06:41;5.40;;;3.05;;
41885;SDS011;27567;43.084;25.616;2023-11-19T15:09:25;4.20;;;2.70;;
41885;SDS011;27567;43.084;25.616;2023-11-19T15:12:09;4.07;;;2.67;;
41885;SDS011;27567;43.084;25.616;2023-11-19T15:14:53;4.05;;;2.63;;
41885;SDS011;27567;43.084;25.616;2023-11-19T15:17:39;4.68;;;3.08;;
41885;SDS011;27567;43.084;25.616;2023-11-19T15:20:23;4.80;;;2.85;;
41885;SDS011;27567;43.084;25.616;2023-11-19T15:23:07;4.70;;;2.75;;
41885;SDS011;27567;43.084;25.616;2023-11-19T15:25:52;3.78;;;2.25;;
41885;SDS011;27567;43.084;25.616;2023-11-19T15:28:36;3.97;;;2.58;;
41885;SDS011;27567;43.084;25.616;2023-11-19T15:31:21;4.07;;;2.80;;
41885;SDS011;27567;43.084;25.616;2023-11-19T15:34:05;4.03;;;2.70;;
41885;SDS011;27567;43.084;25.616;2023-11-19T15:36:50;4.28;;;2.70;;
41885;SDS011;27567;43.084;25.616;2023-11-19T15:39:34;3.90;;;2.65;;
41885;SDS011;27567;43.084;25.616;2023-11-19T15:42:19;4.28;;;2.50;;
41885;SDS011;27567;43.084;25.616;2023-11-19T15:45:03;5.00;;;2.60;;
41885;SDS011;27567;43.084;25.616;2023-11-19T15:47:51;4.15;;;2.55;;
41885;SDS011;27567;43.084;25.616;2023-11-19T15:50:35;4.45;;;3.17;;
41885;SDS011;27567;43.084;25.616;2023-11-19T15:53:19;5.18;;;3.08;;
41885;SDS011;27567;43.084;25.616;2023-11-19T15:56:04;6.32;;;3.22;;
41885;SDS011;27567;43.084;25.616;2023-11-19T15:58:48;5.22;;;3.00;;
41885;SDS011;27567;43.084;25.616;2023-11-19T16:01:32;5.50;;;3.13;;
41885;SDS011;27567;43.084;25.616;2023-11-19T16:04:16;4.38;;;2.80;;
41885;SDS011;27567;43.084;25.616;2023-11-19T16:07:00;4.22;;;3.15;;
41885;SDS011;27567;43.084;25.616;2023-11-19T16:09:44;4.80;;;2.88;;
41885;SDS011;27567;43.084;25.616;2023-11-19T16:12:28;5.57;;;3.40;;
41885;SDS011;27567;43.084;25.616;2023-11-19T16:15:12;10.10;;;4.43;;
41885;SDS011;27567;43.084;25.616;2023-11-19T16:17:58;9.73;;;3.25;;
41885;SDS011;27567;43.084;25.616;2023-11-19T16:20:42;4.03;;;2.90;;
41885;SDS011;27567;43.084;25.616;2023-11-19T16:23:26;4.55;;;3.20;;
41885;SDS011;27567;43.084;25.616;2023-11-19T16:26:11;6.35;;;2.80;;
41885;SDS011;27567;43.084;25.616;2023-11-19T16:28:56;8.85;;;4.47;;